Aérodrome :
LOGIN :

S'inscrire | Disclaimer

   EN    FR    IT 

 










Légende :    VFR   VFR Marginal   IFR   IFR Intensif   IFR Très Intensif
Visi : 
Plafond : 
>= 8 km
>= 3000ft
5 à 8 km
1000 à 3000 ft
1500m à 5 km
500 à 1000 ft
800 à 1500m
200 à 500 ft
< 800m
< 200 ft
Symboles :   Orages  Brouillard  Fortes neiges  Fortes précipitations  Vent > 20 kt
SIGMETs :   Divers  Orages  Givrage  Turbulence  Onde Orograph.  Cendres Volcan.







- Altitude de l'aérodrome : 404 ft
- Code IATA : WRO


EPWR - Wroclaw

DERNIER METAR :
  • 280000Z 12004KT 9999 SCT035 BKN043 05/04 Q1014

METARs EXPIRÉS :
  • 272330Z 13003KT 9999 FEW045 05/04 Q1014
  • 272300Z VRB01KT 9999 FEW040 BKN047 05/04 Q1015
  • 272230Z 12002KT 9999 SCT043 05/04 Q1015
  • 272200Z 13003KT 9999 SCT040 05/04 Q1015
  • 272130Z 15005KT 9999 SCT040 05/04 Q1015

TAF TAF EPWR
Valide du 28 à 00h jusqu'au 29 à 00h UTC


272330Z 2800/2824 09006KT 6000 -RA BKN015
TEMPO 2800/2815 3500 RA BR BKN006 OVC012
PROB30
TEMPO 2803/2809 1400 +RA BR BKN002 OVC012
Pas de NOTAMs connus pour ce terrain.



MET'MAP, la Météo Aéronautique d'un coup d'oeil ! - Copyright ORBIFLY Décembre 2007 - Disclaimer

ORBIFLY MET'MAP TEAM :

Programmation & Développement : Alexandra Zaïnal
Conception & Développement : Baudouin d'Aumeries
Co-Programmation & Développement : Marc-Olivier Méhu
Soutien technique & logistique : Manuel Goepfert

Contact : metmap@orbifly.com




SOURCES & CREDITS :

   NOAA